Time;durP1;ratioP1;P1;durP2;ratioP2;P2;SDS_P1;SDS_P2;PMS_P1;PMS_P2;Temp;Humidity;BMP_temperature;BMP_pressure;BME280_temperature;BME280_humidity;BME280_pressure;Samples;Min_cycle;Max_cycle;Signal;HPM_P1;HPM_P2
2023/01/02 00:00:58;;;;;;;6.47;3.50;;;10.60;99.90;;;;;;5064468;28;20990;-78
2023/01/02 00:03:24;;;;;;;8.67;3.27;;;10.60;99.90;;;;;;5065797;28;20812;-79
2023/01/02 00:05:49;;;;;;;8.47;3.43;;;10.50;99.90;;;;;;5065754;28;20185;-79
2023/01/02 00:08:16;;;;;;;6.23;3.40;;;10.50;99.90;;;;;;5065795;28;20193;-79
2023/01/02 00:10:42;;;;;;;4.57;2.93;;;10.50;99.90;;;;;;5066063;28;20217;-79
2023/01/02 00:13:08;;;;;;;5.87;3.00;;;10.50;99.90;;;;;;5080646;28;20186;-79
2023/01/02 00:15:34;;;;;;;7.57;3.43;;;10.50;99.90;;;;;;5064859;28;20205;-79
2023/01/02 00:17:59;;;;;;;7.03;3.47;;;10.60;99.90;;;;;;5066229;28;20268;-81
2023/01/02 00:20:25;;;;;;;5.87;2.80;;;10.50;99.90;;;;;;5063893;28;20205;-80
2023/01/02 00:22:50;;;;;;;5.27;3.40;;;10.60;99.90;;;;;;5063464;28;20185;-79
2023/01/02 00:25:16;;;;;;;8.03;3.37;;;10.60;99.90;;;;;;5064210;28;20189;-79
2023/01/02 00:27:41;;;;;;;7.77;3.73;;;10.70;99.90;;;;;;5065739;28;20235;-79
2023/01/02 00:30:07;;;;;;;5.63;3.13;;;10.80;99.90;;;;;;5065915;28;20223;-79
2023/01/02 00:32:33;;;;;;;7.33;3.23;;;10.80;99.90;;;;;;5066230;28;20609;-80
2023/01/02 00:34:59;;;;;;;6.00;3.00;;;10.80;99.90;;;;;;5066225;28;20224;-80
2023/01/02 00:37:24;;;;;;;6.07;3.13;;;10.80;99.90;;;;;;5064828;28;20585;-79
2023/01/02 00:39:50;;;;;;;5.67;3.13;;;10.80;99.90;;;;;;5065181;28;20212;-80
2023/01/02 00:42:15;;;;;;;6.57;3.50;;;10.70;99.90;;;;;;5065142;28;20177;-80
2023/01/02 00:44:41;;;;;;;6.57;3.00;;;10.70;99.90;;;;;;5066364;28;20196;-80
2023/01/02 00:47:06;;;;;;;8.97;3.33;;;10.70;99.90;;;;;;5065077;28;20235;-80
2023/01/02 00:49:32;;;;;;;5.10;3.17;;;10.70;99.90;;;;;;5064554;28;20197;-80
2023/01/02 00:51:57;;;;;;;7.53;3.27;;;10.70;99.90;;;;;;5065962;28;20193;-80
2023/01/02 00:54:23;;;;;;;9.73;3.87;;;10.80;99.90;;;;;;5065552;28;20231;-80
2023/01/02 00:56:48;;;;;;;5.77;3.43;;;10.70;99.90;;;;;;5067235;28;20208;-80
2023/01/02 00:59:14;;;;;;;6.80;3.27;;;10.80;99.90;;;;;;5068003;28;20205;-80
2023/01/02 01:01:39;;;;;;;5.17;3.07;;;10.80;99.90;;;;;;5071016;28;20177;-80
2023/01/02 01:04:05;;;;;;;8.33;3.73;;;10.80;99.90;;;;;;5071533;28;20261;-80
2023/01/02 01:06:32;;;;;;;6.30;3.23;;;10.70;99.90;;;;;;5067549;28;20548;-79
2023/01/02 01:08:58;;;;;;;7.00;3.60;;;10.80;99.90;;;;;;5067665;28;20204;-80
2023/01/02 01:11:24;;;;;;;5.40;2.97;;;10.80;99.90;;;;;;5067869;28;20185;-79
2023/01/02 01:13:51;;;;;;;6.47;2.97;;;10.90;99.90;;;;;;5068101;28;20185;-79
2023/01/02 01:16:18;;;;;;;5.60;3.13;;;10.90;99.90;;;;;;5068920;28;20258;-79
2023/01/02 01:18:45;;;;;;;5.10;3.20;;;10.90;99.90;;;;;;5069160;28;20216;-79
2023/01/02 01:21:13;;;;;;;5.27;2.97;;;11.00;99.90;;;;;;5067904;28;20189;-79
2023/01/02 01:23:39;;;;;;;7.13;2.90;;;10.90;99.90;;;;;;5065264;28;20205;-79
2023/01/02 01:26:06;;;;;;;6.13;3.07;;;10.90;99.90;;;;;;5067367;28;20651;-79
2023/01/02 01:28:32;;;;;;;4.63;2.90;;;10.90;99.90;;;;;;5067161;28;20185;-80
2023/01/02 01:31:07;;;;;;;5.87;3.07;;;10.80;99.90;;;;;;5068282;28;20269;-80
2023/01/02 01:33:32;;;;;;;8.17;3.37;;;10.80;99.90;;;;;;5067262;28;20182;-80
2023/01/02 01:36:07;;;;;;;8.13;3.23;;;10.70;99.90;;;;;;5067821;28;20228;-79
2023/01/02 01:38:33;;;;;;;7.43;3.17;;;10.70;99.90;;;;;;5067086;28;20865;-79
2023/01/02 01:40:59;;;;;;;5.17;3.10;;;10.70;99.90;;;;;;5068426;28;20213;-80
2023/01/02 01:43:38;;;;;;;7.20;3.30;;;10.70;99.90;;;;;;5068460;28;20662;-79
2023/01/02 01:46:26;;;;;;;6.80;3.30;;;10.80;89.40;;;;;;5066797;28;20217;-80
2023/01/02 01:49:23;;;;;;;6.57;3.00;;;10.80;88.80;;;;;;5068369;28;20280;-79
2023/01/02 01:52:12;;;;;;;7.23;3.30;;;10.70;92.40;;;;;;5068471;28;20747;-79
2023/01/02 01:54:43;;;;;;;6.63;3.10;;;10.60;95.70;;;;;;5066766;28;20679;-79
2023/01/02 01:57:19;;;;;;;4.23;3.10;;;10.60;98.90;;;;;;5066808;28;20212;-79
2023/01/02 01:59:46;;;;;;;7.87;3.37;;;10.60;97.70;;;;;;5066304;28;20613;-79
2023/01/02 02:02:12;;;;;;;6.33;3.00;;;10.60;99.90;;;;;;5066438;28;20247;-80
2023/01/02 02:04:38;;;;;;;6.23;2.97;;;10.50;99.90;;;;;;5066723;28;20185;-79
2023/01/02 02:07:04;;;;;;;6.10;3.13;;;10.50;99.90;;;;;;5067568;28;20232;-79
2023/01/02 02:09:39;;;;;;;4.30;2.70;;;10.50;99.90;;;;;;5066904;28;20237;-79
2023/01/02 02:12:06;;;;;;;7.00;3.07;;;10.50;99.90;;;;;;5066859;28;20189;-79
2023/01/02 02:14:33;;;;;;;6.97;2.90;;;10.60;99.90;;;;;;5067590;28;20198;-80
2023/01/02 02:17:04;;;;;;;7.27;3.30;;;10.70;91.50;;;;;;5067799;28;20185;-79
2023/01/02 02:19:59;;;;;;;4.80;3.07;;;10.70;85.80;;;;;;5067669;28;20232;-79
2023/01/02 02:22:39;;;;;;;5.07;3.10;;;10.80;86.60;;;;;;5083039;28;20184;-80
2023/01/02 02:25:35;;;;;;;6.33;3.10;;;10.80;84.80;;;;;;5067090;28;20186;-79
2023/01/02 02:28:06;;;;;;;6.20;2.80;;;10.70;86.50;;;;;;5067852;28;20189;-79
2023/01/02 02:30:38;;;;;;;6.33;2.87;;;10.80;77.20;;;;;;5067511;28;20624;-80
2023/01/02 02:33:28;;;;;;;5.60;2.80;;;10.70;64.50;;;;;;5066443;28;20299;-79
2023/01/02 02:36:18;;;;;;;5.53;2.67;;;10.70;65.00;;;;;;5066893;28;20221;-79
2023/01/02 02:38:53;;;;;;;5.07;2.93;;;10.70;68.90;;;;;;5066135;28;20687;-80
2023/01/02 02:41:51;;;;;;;7.83;2.63;;;10.70;71.20;;;;;;5066047;28;20238;-79
2023/01/02 02:44:28;;;;;;;8.87;2.97;;;10.80;53.40;;;;;;5066169;28;20208;-79
2023/01/02 02:47:26;;;;;;;5.57;2.70;;;10.80;58.50;;;;;;5065930;28;20189;-78
2023/01/02 02:49:51;;;;;;;5.20;2.80;;;10.80;40.90;;;;;;5022029;28;20213;-79
2023/01/02 02:52:23;;;;;;;6.90;2.60;;;10.90;38.00;;;;;;5066137;28;20200;-79
2023/01/02 02:54:48;;;;;;;6.57;2.90;;;10.90;35.70;;;;;;5066758;28;20201;-78
2023/01/02 02:57:15;;;;;;;7.43;2.53;;;10.90;35.70;;;;;;5065698;28;20186;-80
2023/01/02 02:59:41;;;;;;;6.00;2.80;;;10.90;29.70;;;;;;5067496;28;20695;-78
2023/01/02 03:02:07;;;;;;;3.47;2.33;;;11.00;27.90;;;;;;5067540;28;20184;-79
2023/01/02 03:04:32;;;;;;;6.80;2.70;;;11.00;26.00;;;;;;5065734;28;20200;-80
2023/01/02 03:07:14;;;;;;;6.63;2.53;;;11.00;28.10;;;;;;5066096;28;20189;-80
2023/01/02 03:10:01;;;;;;;7.03;2.93;;;10.90;32.40;;;;;;5067045;28;20205;-79
2023/01/02 03:12:55;;;;;;;5.57;2.70;;;10.90;31.70;;;;;;5067087;28;20189;-80
2023/01/02 03:15:32;;;;;;;5.67;2.73;;;11.00;25.40;;;;;;5065671;28;20209;-79
2023/01/02 03:18:21;;;;;;;5.60;2.50;;;10.90;31.20;;;;;;5066847;28;20276;-80
2023/01/02 03:21:19;;;;;;;4.07;2.83;;;10.90;32.50;;;;;;5067114;28;20265;-79
2023/01/02 03:23:47;;;;;;;8.17;2.67;;;10.90;35.70;;;;;;5066607;28;20174;-80
2023/01/02 03:26:18;;;;;;;5.00;2.40;;;10.90;35.20;;;;;;5066094;28;20738;-79
2023/01/02 03:28:47;;;;;;;6.80;2.70;;;10.90;29.40;;;;;;5067103;28;20209;-79
2023/01/02 03:31:18;;;;;;;6.90;2.73;;;10.90;18.30;;;;;;5066195;28;20603;-79
2023/01/02 03:33:50;;;;;;;5.27;2.40;;;11.20;1.00;;;;;;5067486;28;20177;-79
2023/01/02 03:36:25;;;;;;;6.23;2.50;;;11.60;1.00;;;;;;5066683;28;20292;-79
2023/01/02 03:39:01;;;;;;;7.33;2.13;;;11.90;1.00;;;;;;5065755;28;20219;-80
2023/01/02 03:41:50;;;;;;;5.88;2.58;;;12.30;1.00;;;;;;5066923;28;20176;-79
2023/01/02 03:44:16;;;;;;;6.18;2.50;;;12.60;1.00;;;;;;5066974;28;20264;-79
2023/01/02 03:46:52;;;;;;;6.97;2.33;;;12.80;1.00;;;;;;5067054;28;20193;-80
2023/01/02 03:49:26;;;;;;;4.45;2.03;;;12.90;1.00;;;;;;5082662;28;20227;-80
2023/01/02 03:51:52;;;;;;;7.32;2.58;;;12.90;1.00;;;;;;5066041;28;20659;-79
2023/01/02 03:54:18;;;;;;;5.78;2.35;;;12.90;1.00;;;;;;5066054;28;20220;-80
2023/01/02 03:57:07;;;;;;;5.38;2.30;;;12.80;1.00;;;;;;5067018;28;20683;-80
2023/01/02 03:59:51;;;;;;;5.15;2.22;;;13.00;1.00;;;;;;5065306;28;20202;-78
2023/01/02 04:02:29;;;;;;;8.05;2.33;;;13.00;1.00;;;;;;5065159;28;20181;-79
2023/01/02 04:04:58;;;;;;;7.32;2.45;;;13.20;1.00;;;;;;5064728;28;20181;-79
2023/01/02 04:07:35;;;;;;;4.70;2.40;;;13.30;1.00;;;;;;5080809;28;20214;-79
2023/01/02 04:10:03;;;;;;;5.68;2.10;;;13.20;1.00;;;;;;5065610;28;20221;-79
2023/01/02 04:12:32;;;;;;;4.60;2.25;;;13.20;1.00;;;;;;5081224;28;20192;-79
2023/01/02 04:15:02;;;;;;;10.40;2.15;;;13.20;1.00;;;;;;5063941;28;20205;-79
2023/01/02 04:17:30;;;;;;;5.07;2.00;;;13.20;1.00;;;;;;5063906;28;20208;-79
2023/01/02 04:20:03;;;;;;;7.18;2.55;;;13.30;1.00;;;;;;5065903;28;20225;-78
2023/01/02 04:22:33;;;;;;;7.07;2.67;;;13.30;1.00;;;;;;5065390;28;20185;-79
2023/01/02 04:25:19;;;;;;;7.78;2.83;;;13.40;1.00;;;;;;5081220;28;20188;-78
2023/01/02 04:27:57;;;;;;;4.72;2.10;;;13.50;1.00;;;;;;5063263;28;20332;-78
2023/01/02 04:30:23;;;;;;;4.65;2.05;;;13.40;1.00;;;;;;5065430;28;20258;-78
2023/01/02 04:32:49;;;;;;;6.15;2.42;;;13.40;1.00;;;;;;5064140;28;20206;-79
2023/01/02 04:35:19;;;;;;;7.30;2.35;;;13.30;1.00;;;;;;5083797;28;20268;-79
2023/01/02 04:37:45;;;;;;;7.32;2.45;;;13.30;1.00;;;;;;5069731;28;20173;-79
2023/01/02 04:40:23;;;;;;;5.22;2.25;;;13.30;1.00;;;;;;5084946;28;20241;-79
2023/01/02 04:42:48;;;;;;;4.88;1.90;;;13.30;1.00;;;;;;5069795;28;20658;-79
2023/01/02 04:45:14;;;;;;;5.35;2.22;;;13.40;1.00;;;;;;5068368;28;20214;-79
2023/01/02 04:47:39;;;;;;;5.68;2.13;;;13.40;1.00;;;;;;5069329;28;20181;-79
2023/01/02 04:50:06;;;;;;;5.55;2.30;;;13.40;1.00;;;;;;5069588;28;20213;-80
2023/01/02 04:52:31;;;;;;;4.85;2.10;;;13.50;1.00;;;;;;5069284;28;20184;-79
2023/01/02 04:54:57;;;;;;;7.25;2.30;;;13.40;1.00;;;;;;5068046;28;20209;-79
2023/01/02 04:57:22;;;;;;;4.22;2.20;;;13.40;1.00;;;;;;5067825;28;20181;-78
2023/01/02 04:59:48;;;;;;;6.63;2.50;;;13.40;1.00;;;;;;5067961;28;20334;-79
2023/01/02 05:02:14;;;;;;;6.15;2.25;;;13.40;1.00;;;;;;5067987;28;20181;-80
2023/01/02 05:04:39;;;;;;;5.95;2.20;;;13.40;1.00;;;;;;5069177;28;20280;-79
2023/01/02 05:07:05;;;;;;;8.20;2.33;;;13.40;1.00;;;;;;5069352;28;20271;-79
2023/01/02 05:09:31;;;;;;;5.32;1.98;;;13.40;1.00;;;;;;5068961;28;20692;-79
2023/01/02 05:11:56;;;;;;;5.15;2.20;;;13.50;1.00;;;;;;5069278;28;20604;-79
2023/01/02 05:14:22;;;;;;;4.28;2.30;;;13.60;1.00;;;;;;5067510;28;20209;-79
2023/01/02 05:16:47;;;;;;;5.15;2.25;;;13.50;1.00;;;;;;5067537;28;20181;-79
2023/01/02 05:19:13;;;;;;;6.60;2.53;;;13.60;1.00;;;;;;5069020;28;20276;-80
2023/01/02 05:24:25;;;;;;;4.97;2.03;;;13.60;1.00;;;;;;5069419;28;20192;-78
2023/01/02 05:26:50;;;;;;;4.53;2.30;;;13.70;1.00;;;;;;5068655;28;20188;-79
2023/01/02 05:29:16;;;;;;;6.13;2.35;;;13.70;1.00;;;;;;5069061;28;20585;-79
2023/01/02 05:31:41;;;;;;;6.47;2.20;;;13.70;1.00;;;;;;5067491;28;20339;-79
2023/01/02 05:34:12;;;;;;;4.63;2.03;;;13.60;1.00;;;;;;5067171;28;20184;-79
2023/01/02 05:36:37;;;;;;;4.65;1.85;;;13.70;1.00;;;;;;5067114;28;20170;-80
2023/01/02 05:39:13;;;;;;;5.80;2.40;;;13.70;1.00;;;;;;5067270;28;20738;-80
2023/01/02 05:41:40;;;;;;;7.28;2.45;;;13.80;1.00;;;;;;5068976;28;20166;-79
2023/01/02 05:44:09;;;;;;;4.80;2.10;;;13.90;1.00;;;;;;5068768;28;20182;-79
2023/01/02 05:46:36;;;;;;;5.93;2.13;;;13.80;1.00;;;;;;5068067;28;20173;-78
2023/01/02 05:49:06;;;;;;;6.78;2.03;;;13.70;1.00;;;;;;5069232;28;20206;-80
2023/01/02 05:51:31;;;;;;;5.15;2.20;;;14.00;1.00;;;;;;5071838;28;20641;-79
2023/01/02 05:53:57;;;;;;;5.28;2.40;;;14.00;1.00;;;;;;5067520;28;20189;-79
2023/01/02 05:56:23;;;;;;;7.15;2.50;;;14.00;1.00;;;;;;5066621;28;20201;-78
2023/01/02 05:58:49;;;;;;;5.68;2.28;;;14.00;1.00;;;;;;5068678;28;20201;-79
2023/01/02 06:01:23;;;;;;;6.00;2.15;;;14.00;1.00;;;;;;5067198;28;20182;-80
2023/01/02 06:03:51;;;;;;;6.53;2.42;;;14.00;1.00;;;;;;5067691;28;20173;-80
2023/01/02 06:06:19;;;;;;;5.40;2.15;;;14.00;1.00;;;;;;5068068;28;20181;-81
2023/01/02 06:08:45;;;;;;;7.78;2.50;;;14.00;1.00;;;;;;5068639;28;20201;-80
2023/01/02 06:11:10;;;;;;;5.30;2.28;;;14.10;1.00;;;;;;5067231;28;20189;-79
2023/01/02 06:13:37;;;;;;;6.88;2.35;;;14.00;1.00;;;;;;5068109;28;20264;-80
2023/01/02 06:16:05;;;;;;;4.88;2.13;;;13.90;1.00;;;;;;5068201;28;20209;-79
2023/01/02 06:18:32;;;;;;;4.82;1.95;;;14.10;1.00;;;;;;5068923;28;20460;-79
2023/01/02 06:21:03;;;;;;;5.63;2.20;;;14.10;1.00;;;;;;5069869;28;20276;-80
2023/01/02 06:23:28;;;;;;;7.82;2.45;;;14.20;1.00;;;;;;5086329;28;20271;-80
2023/01/02 06:25:54;;;;;;;4.15;2.30;;;14.10;1.00;;;;;;5070850;28;20189;-80
2023/01/02 06:28:19;;;;;;;3.15;1.83;;;14.00;1.00;;;;;;5071651;28;20200;-80
2023/01/02 06:30:45;;;;;;;6.25;2.00;;;13.90;1.00;;;;;;5070555;28;20182;-80
2023/01/02 06:33:10;;;;;;;5.20;2.20;;;13.90;1.00;;;;;;5071773;28;20619;-80
2023/01/02 06:35:36;;;;;;;6.03;2.42;;;13.90;1.00;;;;;;5070861;28;20220;-80
2023/01/02 06:38:02;;;;;;;5.40;2.25;;;13.90;1.00;;;;;;5071192;28;20186;-80
2023/01/02 06:40:27;;;;;;;6.30;2.05;;;13.90;1.00;;;;;;5071127;28;20209;-80
2023/01/02 06:42:53;;;;;;;6.35;2.22;;;13.90;1.00;;;;;;5071660;28;20284;-80
2023/01/02 06:45:18;;;;;;;10.15;2.58;;;13.80;1.00;;;;;;5070175;28;20186;-80
2023/01/02 06:47:44;;;;;;;5.45;2.17;;;13.90;1.00;;;;;;5071618;28;20181;-79
2023/01/02 06:50:09;;;;;;;6.97;2.00;;;13.90;1.00;;;;;;5070303;28;20216;-80
2023/01/02 06:52:35;;;;;;;4.18;2.40;;;13.80;1.00;;;;;;5071079;28;20224;-80
2023/01/02 06:55:01;;;;;;;7.28;2.00;;;13.80;1.00;;;;;;5068080;28;20283;-80
2023/01/02 06:57:29;;;;;;;4.90;2.28;;;13.90;1.00;;;;;;5069931;28;20185;-80
2023/01/02 06:59:55;;;;;;;5.07;2.35;;;14.10;1.00;;;;;;5070837;28;20198;-80
2023/01/02 07:02:21;;;;;;;5.28;2.65;;;14.00;1.00;;;;;;5069461;28;20308;-80
2023/01/02 07:04:46;;;;;;;7.15;2.50;;;14.00;1.00;;;;;;5070735;28;20243;-80
2023/01/02 07:07:12;;;;;;;7.57;2.63;;;13.90;1.00;;;;;;5070714;28;20190;-81
2023/01/02 07:09:37;;;;;;;7.30;2.45;;;13.90;1.00;;;;;;5069363;28;20205;-80
2023/01/02 07:12:03;;;;;;;7.18;2.50;;;14.10;1.00;;;;;;5068069;28;20217;-80
2023/01/02 07:14:29;;;;;;;5.57;2.30;;;14.10;1.00;;;;;;5067384;28;20220;-80
2023/01/02 07:16:54;;;;;;;4.85;2.20;;;14.10;1.00;;;;;;5068463;28;20182;-79
2023/01/02 07:19:20;;;;;;;6.60;2.42;;;14.10;1.00;;;;;;5069571;28;20266;-80
2023/01/02 07:21:46;;;;;;;4.35;2.20;;;14.10;1.00;;;;;;5067548;28;20169;-80
2023/01/02 07:24:12;;;;;;;4.80;2.10;;;14.10;1.00;;;;;;5068904;28;20550;-80
2023/01/02 07:26:38;;;;;;;5.95;2.40;;;14.10;1.00;;;;;;5068477;28;20184;-80
2023/01/02 07:29:04;;;;;;;5.90;2.80;;;14.00;1.00;;;;;;5068141;28;20204;-80
2023/01/02 07:31:29;;;;;;;6.18;2.40;;;14.10;1.00;;;;;;5068262;28;20181;-79
2023/01/02 07:33:56;;;;;;;8.07;2.03;;;14.10;1.00;;;;;;5067556;28;20178;-81
2023/01/02 07:36:23;;;;;;;6.10;2.40;;;14.10;1.00;;;;;;5067244;28;20208;-80
2023/01/02 07:38:53;;;;;;;4.97;1.90;;;14.20;1.00;;;;;;5069994;28;20303;-80
2023/01/02 07:41:22;;;;;;;6.07;2.10;;;14.10;1.00;;;;;;5070376;28;20647;-81
2023/01/02 07:43:49;;;;;;;5.03;2.70;;;14.10;1.00;;;;;;5067520;28;20177;-80
2023/01/02 07:46:16;;;;;;;3.72;2.33;;;14.30;1.00;;;;;;5067058;28;20586;-80
2023/01/02 07:48:43;;;;;;;4.97;2.03;;;14.30;1.00;;;;;;5068003;28;20228;-79
2023/01/02 07:51:09;;;;;;;5.47;2.00;;;14.20;1.00;;;;;;5068730;28;20555;-80
2023/01/02 07:53:35;;;;;;;7.97;1.98;;;14.20;1.00;;;;;;5069576;28;20986;-80
2023/01/02 07:56:02;;;;;;;7.82;2.13;;;14.20;1.00;;;;;;5067940;28;20217;-80
2023/01/02 07:58:28;;;;;;;6.45;2.20;;;14.20;1.00;;;;;;5066838;28;20188;-80
2023/01/02 08:00:54;;;;;;;4.88;1.80;;;14.20;1.00;;;;;;5068700;28;20186;-80
2023/01/02 08:03:20;;;;;;;6.13;1.88;;;14.20;1.00;;;;;;5067717;28;20177;-79
2023/01/02 08:05:46;;;;;;;6.20;1.90;;;14.30;1.00;;;;;;5068519;28;20178;-79
2023/01/02 08:08:12;;;;;;;6.50;2.33;;;14.30;1.00;;;;;;5067778;28;20231;-78
2023/01/02 08:10:37;;;;;;;7.95;2.40;;;14.30;1.00;;;;;;5067741;28;20282;-79
2023/01/02 08:13:04;;;;;;;6.25;2.38;;;14.30;1.00;;;;;;5066668;28;20189;-77
2023/01/02 08:15:30;;;;;;;6.80;2.15;;;14.30;1.00;;;;;;5066338;28;20201;-78
2023/01/02 08:17:56;;;;;;;5.80;1.90;;;14.40;1.00;;;;;;5066249;28;21026;-78
2023/01/02 08:20:23;;;;;;;6.18;2.15;;;14.40;1.00;;;;;;5066563;28;20316;-78
2023/01/02 08:22:48;;;;;;;6.50;2.15;;;14.40;1.00;;;;;;5082540;28;20174;-78
2023/01/02 08:25:14;;;;;;;6.78;2.03;;;14.40;1.00;;;;;;5066696;28;20188;-78
2023/01/02 08:27:39;;;;;;;8.32;2.65;;;14.50;1.00;;;;;;5065354;28;20193;-79
2023/01/02 08:30:06;;;;;;;4.65;2.15;;;14.40;1.00;;;;;;5066643;28;20237;-78
2023/01/02 08:32:36;;;;;;;4.80;2.20;;;14.40;1.00;;;;;;5065839;28;20205;-76
2023/01/02 08:35:03;;;;;;;4.13;1.60;;;14.40;1.00;;;;;;5067787;28;20232;-79
2023/01/02 08:37:28;;;;;;;5.35;1.80;;;14.40;1.00;;;;;;5067655;28;20177;-80
2023/01/02 08:39:54;;;;;;;6.68;1.88;;;14.40;1.00;;;;;;5066443;28;20297;-78
2023/01/02 08:42:19;;;;;;;4.30;2.00;;;14.40;1.00;;;;;;5066007;28;20233;-78
2023/01/02 08:44:45;;;;;;;7.00;2.55;;;14.40;1.00;;;;;;5068505;28;20192;-78
2023/01/02 08:47:10;;;;;;;4.30;1.98;;;14.30;1.00;;;;;;5068707;28;20193;-79
2023/01/02 08:49:36;;;;;;;7.05;2.60;;;14.30;1.00;;;;;;5068419;28;21062;-78
2023/01/02 08:52:01;;;;;;;5.18;2.10;;;14.40;1.00;;;;;;5069332;28;20773;-77
2023/01/02 08:54:27;;;;;;;4.15;1.90;;;14.50;1.00;;;;;;5068665;28;20632;-79
2023/01/02 08:56:53;;;;;;;4.18;2.00;;;14.40;1.00;;;;;;5066938;28;20656;-81
2023/01/02 08:59:18;;;;;;;4.20;2.30;;;14.40;1.00;;;;;;5067324;28;20285;-79
2023/01/02 09:01:44;;;;;;;3.50;1.90;;;14.40;1.00;;;;;;5062651;28;20580;-81
2023/01/02 09:04:09;;;;;;;6.88;2.35;;;14.40;1.00;;;;;;5067614;28;20553;-80
2023/01/02 09:06:36;;;;;;;5.05;2.08;;;14.30;1.00;;;;;;5068105;28;20181;-78
2023/01/02 09:09:03;;;;;;;5.50;1.90;;;14.30;1.00;;;;;;5072337;28;20218;-79
2023/01/02 09:11:33;;;;;;;6.28;2.45;;;14.30;1.00;;;;;;5071361;28;20265;-80
2023/01/02 09:13:59;;;;;;;6.05;2.13;;;14.40;1.00;;;;;;5085757;28;20221;-80
2023/01/02 09:16:25;;;;;;;4.65;1.80;;;14.30;1.00;;;;;;5067148;28;20209;-80
2023/01/02 09:18:51;;;;;;;5.18;2.05;;;14.30;1.00;;;;;;5069758;28;20209;-79
2023/01/02 09:21:18;;;;;;;6.35;1.80;;;14.20;1.00;;;;;;5069947;28;20269;-79
2023/01/02 09:23:43;;;;;;;5.10;1.90;;;14.30;1.00;;;;;;5072568;28;20193;-80
2023/01/02 09:26:10;;;;;;;3.63;1.63;;;14.40;1.00;;;;;;5071029;28;20182;-80
2023/01/02 09:28:36;;;;;;;4.28;1.95;;;14.30;1.00;;;;;;5087199;28;20201;-80
2023/01/02 09:31:13;;;;;;;7.05;1.70;;;14.30;1.00;;;;;;5071617;28;20635;-80
2023/01/02 09:33:40;;;;;;;4.18;1.73;;;14.30;1.00;;;;;;5069010;28;20257;-80
2023/01/02 09:36:07;;;;;;;5.88;2.00;;;14.40;1.00;;;;;;5086386;28;20213;-80
2023/01/02 09:38:33;;;;;;;7.50;2.50;;;14.50;1.00;;;;;;5069242;28;20188;-80
2023/01/02 09:41:01;;;;;;;2.95;1.70;;;14.50;1.00;;;;;;5070570;28;20260;-79
2023/01/02 09:43:33;;;;;;;7.85;2.53;;;14.40;1.00;;;;;;5071636;28;20170;-80
2023/01/02 09:46:02;;;;;;;6.15;1.90;;;14.40;1.00;;;;;;5071590;28;20200;-81
2023/01/02 09:48:33;;;;;;;4.97;1.83;;;14.40;1.00;;;;;;5073342;28;20222;-81
2023/01/02 09:51:00;;;;;;;5.72;2.08;;;14.40;1.00;;;;;;5072276;28;20194;-79
2023/01/02 09:53:26;;;;;;;5.07;1.75;;;14.40;1.00;;;;;;5070442;28;20737;-80
2023/01/02 09:55:59;;;;;;;4.63;1.75;;;14.30;1.00;;;;;;5070738;28;20213;-80
2023/01/02 09:58:54;;;;;;;6.60;1.77;;;14.40;1.00;;;;;;5070894;28;20184;-79
2023/01/02 10:01:44;;;;;;;4.13;2.05;;;14.30;1.00;;;;;;5087283;28;20813;-80
2023/01/02 10:04:38;;;;;;;5.15;1.90;;;14.40;1.00;;;;;;5072384;28;20264;-81
2023/01/02 10:07:11;;;;;;;4.03;1.95;;;14.40;1.00;;;;;;5071169;28;20189;-80
2023/01/02 10:09:54;;;;;;;4.38;1.85;;;14.50;1.00;;;;;;5069495;28;20197;-80
2023/01/02 10:13:04;;;;;;;3.22;1.83;;;14.50;1.00;;;;;;5070472;28;20201;-81
2023/01/02 10:15:30;;;;;;;6.85;2.10;;;14.40;1.00;;;;;;5068392;28;21087;-79
2023/01/02 10:18:23;;;;;;;5.55;2.03;;;14.30;1.00;;;;;;5068781;28;20189;-79
2023/01/02 10:21:10;;;;;;;5.47;1.88;;;14.30;1.00;;;;;;5067192;28;20263;-81
2023/01/02 10:23:40;;;;;;;3.60;1.80;;;14.20;1.00;;;;;;5065811;28;20197;-80
2023/01/02 10:26:13;;;;;;;6.65;1.90;;;14.20;1.00;;;;;;5065990;28;20197;-79
2023/01/02 10:29:10;;;;;;;5.88;2.00;;;14.20;1.00;;;;;;5067266;28;20201;-80
2023/01/02 10:31:56;;;;;;;5.90;2.15;;;14.30;1.00;;;;;;5067232;28;20484;-80
2023/01/02 10:34:23;;;;;;;4.65;1.70;;;14.30;1.00;;;;;;5083417;28;20203;-81
2023/01/02 10:36:49;;;;;;;5.00;1.83;;;14.40;1.00;;;;;;5065509;28;20201;-81
2023/01/02 10:39:20;;;;;;;6.13;2.30;;;14.50;1.00;;;;;;5066803;28;20201;-79
2023/01/02 10:41:49;;;;;;;5.38;1.92;;;14.50;1.00;;;;;;5065764;28;20223;-79
2023/01/02 10:44:26;;;;;;;3.85;2.15;;;14.60;1.00;;;;;;5066186;28;20190;-80
2023/01/02 10:46:52;;;;;;;5.10;1.90;;;14.80;1.00;;;;;;5065849;28;20550;-80
2023/01/02 10:49:20;;;;;;;3.70;1.83;;;14.70;1.00;;;;;;5065491;28;20209;-80
2023/01/02 10:51:52;;;;;;;6.57;2.25;;;14.80;1.00;;;;;;5068009;28;20514;-80
2023/01/02 10:54:17;;;;;;;6.43;1.98;;;14.70;1.00;;;;;;5065755;28;20542;-80
2023/01/02 10:56:48;;;;;;;7.07;2.20;;;14.70;1.00;;;;;;5066003;28;20192;-79
2023/01/02 10:59:18;;;;;;;5.93;1.90;;;14.70;1.00;;;;;;5065959;28;20287;-80
2023/01/02 11:01:56;;;;;;;4.35;1.92;;;14.70;1.00;;;;;;5066916;28;20262;-81
2023/01/02 11:04:24;;;;;;;4.35;1.73;;;14.80;1.00;;;;;;5066107;28;20268;-80
2023/01/02 11:07:01;;;;;;;3.50;1.73;;;14.60;1.00;;;;;;5066931;28;20231;-81
2023/01/02 11:09:30;;;;;;;5.50;2.00;;;14.60;1.00;;;;;;5066681;28;20209;-80
2023/01/02 11:12:08;;;;;;;5.38;1.85;;;14.70;1.00;;;;;;5065460;28;20186;-79
2023/01/02 11:14:35;;;;;;;5.60;1.98;;;14.60;1.00;;;;;;5065374;28;20264;-80
2023/01/02 11:17:05;;;;;;;7.00;2.33;;;14.60;1.00;;;;;;5065496;28;20864;-80
2023/01/02 11:19:39;;;;;;;7.13;2.30;;;14.60;1.00;;;;;;5066262;28;20682;-81
2023/01/02 11:22:05;;;;;;;4.50;2.08;;;14.60;1.00;;;;;;5066694;28;20185;-80
2023/01/02 11:24:31;;;;;;;5.20;1.92;;;14.60;1.00;;;;;;5065343;28;20177;-81
2023/01/02 11:27:01;;;;;;;6.55;2.20;;;14.60;1.00;;;;;;5066857;28;20550;-81
2023/01/02 11:29:33;;;;;;;9.27;2.40;;;14.60;1.00;;;;;;5064792;28;20655;-80
2023/01/02 11:32:01;;;;;;;6.85;2.28;;;14.50;1.00;;;;;;5066460;28;20189;-80
2023/01/02 11:34:38;;;;;;;4.65;1.85;;;14.50;1.00;;;;;;5064093;28;20225;-81
2023/01/02 11:37:10;;;;;;;4.85;1.95;;;14.50;1.00;;;;;;5065414;28;20189;-80
2023/01/02 11:39:36;;;;;;;4.78;1.83;;;14.50;1.00;;;;;;5064633;28;20525;-80
2023/01/02 11:45:04;;;;;;;6.38;2.15;;;14.40;1.00;;;;;;5067457;28;20664;-79
2023/01/02 11:47:49;;;;;;;4.78;1.88;;;14.30;1.00;;;;;;5067935;28;20223;-80
2023/01/02 11:50:34;;;;;;;9.43;1.88;;;14.20;1.00;;;;;;5066864;28;20205;-79
2023/01/02 11:53:11;;;;;;;6.10;1.92;;;14.10;1.00;;;;;;5065515;28;20189;-80
2023/01/02 11:56:03;;;;;;;4.70;2.30;;;13.90;1.00;;;;;;5064823;28;20663;-80
2023/01/02 11:58:57;;;;;;;5.57;2.20;;;13.70;1.00;;;;;;5066241;28;20204;-79
2023/01/02 12:02:00;;;;;;;6.32;2.72;;;13.50;1.00;;;;;;5064304;28;20186;-81
2023/01/02 12:04:26;;;;;;;7.18;2.60;;;13.40;1.00;;;;;;5029505;28;20376;-81
2023/01/02 12:06:57;;;;;;;5.35;2.38;;;13.30;1.00;;;;;;5058872;28;20196;-81
2023/01/02 12:09:47;;;;;;;5.93;2.35;;;13.10;1.00;;;;;;5061183;28;20205;-81
2023/01/02 12:12:36;;;;;;;4.40;2.60;;;13.00;1.00;;;;;;5063144;28;20220;-81
2023/01/02 12:15:17;;;;;;;2.63;1.50;;;12.80;1.00;;;;;;5059256;28;20304;-82
2023/01/02 12:18:05;;;;;;;4.20;1.20;;;12.70;1.00;;;;;;5062944;28;20231;-81
2023/01/02 12:20:42;;;;;;;3.70;1.10;;;12.60;1.00;;;;;;5064389;28;20219;-81
2023/01/02 12:23:19;;;;;;;1.48;0.80;;;12.30;1.00;;;;;;5065978;28;20223;-80
2023/01/02 12:26:07;;;;;;;1.38;0.70;;;12.40;1.00;;;;;;5066960;28;20177;-81
2023/01/02 12:28:58;;;;;;;2.70;0.80;;;12.40;1.00;;;;;;5065743;28;20265;-81
2023/01/02 12:31:42;;;;;;;0.83;0.50;;;12.30;1.00;;;;;;5065407;28;20181;-80
2023/01/02 12:34:27;;;;;;;1.07;0.70;;;12.30;1.00;;;;;;5066593;28;20254;-82
2023/01/02 12:37:17;;;;;;;1.13;0.70;;;12.20;1.00;;;;;;5065977;28;20678;-80
2023/01/02 12:40:01;;;;;;;1.27;0.73;;;12.10;1.00;;;;;;5066177;28;20224;-79
2023/01/02 12:42:33;;;;;;;2.60;0.67;;;12.10;1.00;;;;;;5057956;28;20706;-81
2023/01/02 12:44:59;;;;;;;3.33;0.90;;;12.10;1.00;;;;;;5064871;28;20189;-81
2023/01/02 12:47:49;;;;;;;2.77;0.93;;;12.00;1.00;;;;;;5063352;28;20650;-80
2023/01/02 12:50:32;;;;;;;1.00;0.73;;;12.00;1.00;;;;;;5064525;28;20291;-79
2023/01/02 12:53:04;;;;;;;2.22;1.10;;;12.10;1.00;;;;;;5066159;28;20196;-80
2023/01/02 12:55:51;;;;;;;1.57;1.10;;;12.00;1.00;;;;;;5065335;28;20232;-79
2023/01/02 12:58:38;;;;;;;2.43;1.07;;;12.00;1.00;;;;;;5069014;28;20174;-80
2023/01/02 13:01:16;;;;;;;1.10;0.90;;;12.00;1.00;;;;;;5069892;28;20174;-81
2023/01/02 13:03:55;;;;;;;1.73;1.00;;;11.90;4.60;;;;;;5064196;28;20245;-81
2023/01/02 13:06:29;;;;;;;2.20;1.20;;;12.00;12.30;;;;;;5063670;28;20756;-80
2023/01/02 13:09:01;;;;;;;2.93;1.10;;;12.00;15.20;;;;;;5063139;28;20702;-79
2023/01/02 13:11:39;;;;;;;2.57;0.87;;;12.00;10.10;;;;;;5064082;28;20608;-80
2023/01/02 13:14:06;;;;;;;1.67;0.97;;;12.00;10.10;;;;;;5062622;28;20208;-80
2023/01/02 13:16:34;;;;;;;2.67;1.00;;;12.00;16.50;;;;;;5059875;28;20209;-80
2023/01/02 13:19:36;;;;;;;1.80;1.00;;;12.00;27.00;;;;;;5061937;28;20232;-80